createdAt,value
2022-12-11T00:00:38.994Z,46.95
2022-12-11T00:05:42.308Z,49.55
2022-12-11T00:10:50.364Z,47.38
2022-12-11T00:15:51.991Z,48.00
2022-12-11T00:20:53.722Z,45.05
2022-12-11T00:25:55.395Z,49.00
2022-12-11T00:30:56.997Z,44.60
2022-12-11T00:35:58.763Z,45.88
2022-12-11T00:41:00.397Z,45.10
2022-12-11T00:46:02.426Z,47.97
2022-12-11T00:51:04.451Z,48.95
2022-12-11T00:56:10.721Z,46.55
2022-12-11T01:01:16.113Z,49.20
2022-12-11T01:06:21.079Z,47.58
2022-12-11T01:11:22.655Z,47.47
2022-12-11T01:16:24.263Z,49.13
2022-12-11T01:21:26.154Z,47.50
2022-12-11T01:26:27.885Z,46.33
2022-12-11T01:31:29.589Z,49.72
2022-12-11T01:36:31.194Z,49.33
2022-12-11T01:41:32.991Z,49.97
2022-12-11T01:46:36.321Z,52.92
2022-12-11T01:52:01.519Z,54.45
2022-12-11T01:57:06.706Z,48.88
2022-12-11T02:02:22.640Z,51.20
2022-12-11T02:07:24.357Z,52.28
2022-12-11T02:12:47.694Z,49.22
2022-12-11T02:18:15.014Z,54.15
2022-12-11T02:23:32.765Z,51.63
2022-12-11T02:29:09.946Z,51.90
2022-12-11T02:34:39.837Z,56.40
2022-12-11T02:39:44.438Z,51.17
2022-12-11T02:44:48.816Z,54.13
2022-12-11T02:49:52.067Z,56.58
2022-12-11T02:54:58.109Z,54.17
2022-12-11T02:59:59.960Z,52.25
2022-12-11T03:05:01.611Z,52.05
2022-12-11T03:10:06.354Z,51.95
2022-12-11T03:15:13.961Z,49.30
2022-12-11T03:20:51.179Z,50.35
2022-12-11T03:25:59.509Z,53.63
2022-12-11T03:31:07.680Z,57.28
2022-12-11T03:36:21.011Z,56.53
2022-12-11T03:41:25.390Z,54.15
2022-12-11T03:46:33.470Z,53.00
2022-12-11T03:51:36.408Z,51.90
2022-12-11T03:56:40.069Z,51.03
2022-12-11T04:01:41.707Z,50.05
2022-12-11T04:06:43.494Z,51.45
2022-12-11T04:11:45.148Z,51.70
2022-12-11T04:16:46.840Z,46.33
2022-12-11T04:22:07.094Z,49.28
2022-12-11T04:27:08.926Z,48.72
2022-12-11T04:32:10.559Z,44.55
2022-12-11T04:37:12.132Z,48.00
2022-12-11T04:42:13.786Z,47.28
2022-12-11T04:47:15.383Z,43.97
2022-12-11T04:52:18.209Z,47.35
2022-12-11T04:57:21.577Z,47.78
2022-12-11T05:02:23.308Z,47.40
2022-12-11T05:07:24.918Z,43.97
2022-12-11T05:12:26.520Z,45.72
2022-12-11T05:17:28.125Z,43.50
2022-12-11T05:22:31.658Z,45.80
2022-12-11T05:27:33.952Z,45.72
2022-12-11T05:32:35.662Z,43.83
2022-12-11T05:37:37.751Z,46.20
2022-12-11T05:42:39.345Z,44.53
2022-12-11T05:47:41.025Z,46.35
2022-12-11T05:52:42.604Z,47.97
2022-12-11T05:57:44.702Z,45.83
2022-12-11T06:02:46.437Z,41.35
2022-12-11T06:07:48.148Z,43.75
2022-12-11T06:12:49.778Z,50.17
2022-12-11T06:17:51.383Z,45.70
2022-12-11T06:22:53.025Z,49.60
2022-12-11T06:27:55.004Z,45.08
2022-12-11T06:32:58.885Z,47.95
2022-12-11T06:38:00.559Z,46.75
2022-12-11T06:43:02.426Z,51.55
2022-12-11T06:48:04.589Z,47.47
2022-12-11T06:53:06.337Z,50.00
2022-12-11T06:58:08.892Z,49.40
2022-12-11T07:03:11.116Z,45.25
2022-12-11T07:08:15.153Z,47.30
2022-12-11T07:13:16.786Z,48.95
2022-12-11T07:18:18.429Z,50.70
2022-12-11T07:23:20.592Z,50.22
2022-12-11T07:28:22.605Z,53.65
2022-12-11T07:33:24.320Z,54.53
2022-12-11T07:38:25.980Z,50.65
2022-12-11T07:43:28.116Z,58.97
2022-12-11T07:48:35.996Z,69.00
2022-12-11T07:53:37.659Z,58.92
2022-12-11T07:58:39.404Z,57.58
2022-12-11T08:03:41.005Z,51.25
2022-12-11T08:08:43.139Z,58.03
2022-12-11T08:13:44.866Z,61.45
2022-12-11T08:18:48.239Z,59.75
2022-12-11T08:23:51.903Z,69.93
2022-12-11T08:28:54.185Z,56.47
2022-12-11T08:33:56.869Z,54.80
2022-12-11T08:38:59.042Z,59.85
2022-12-11T08:44:01.817Z,60.00
2022-12-11T08:49:03.586Z,52.40
2022-12-11T08:54:05.190Z,56.45
2022-12-11T08:59:06.885Z,54.72
2022-12-11T09:04:08.490Z,57.83
2022-12-11T09:09:10.079Z,59.00
2022-12-11T09:14:11.653Z,56.25
2022-12-11T09:19:14.475Z,52.20
2022-12-11T09:24:17.271Z,52.22
2022-12-11T09:29:18.923Z,51.50
2022-12-11T09:34:24.804Z,48.25
2022-12-11T09:39:30.784Z,53.45
2022-12-11T09:44:54.274Z,60.33
2022-12-11T09:50:10.466Z,52.45
2022-12-11T09:55:18.383Z,49.67
2022-12-11T10:00:32.127Z,54.38
2022-12-11T10:05:38.397Z,61.53
2022-12-11T10:10:44.309Z,44.25
2022-12-11T10:16:04.079Z,50.50
2022-12-11T10:21:06.207Z,56.95
2022-12-11T10:26:19.353Z,45.92
2022-12-11T10:31:41.298Z,40.22
2022-12-11T10:36:44.095Z,46.70
2022-12-11T10:41:48.842Z,45.78
2022-12-11T10:47:15.273Z,46.13
2022-12-11T10:52:25.923Z,45.28
2022-12-11T10:57:34.199Z,42.00
2022-12-11T11:02:38.748Z,50.25
2022-12-11T11:07:41.033Z,39.95
2022-12-11T11:12:42.698Z,42.58
2022-12-11T11:17:55.492Z,43.13
2022-12-11T11:23:01.805Z,42.25
2022-12-11T11:28:07.947Z,46.45
2022-12-11T11:33:17.712Z,40.30
2022-12-11T11:38:22.895Z,42.60
2022-12-11T11:43:51.603Z,41.58
2022-12-11T11:49:04.312Z,42.08
2022-12-11T11:54:34.802Z,41.03
2022-12-11T11:59:58.631Z,45.55
2022-12-11T12:05:00.364Z,39.78
2022-12-11T12:10:21.573Z,42.53
2022-12-11T12:15:46.977Z,41.17
2022-12-11T12:20:53.460Z,47.25
2022-12-11T12:26:07.099Z,42.55
2022-12-11T12:31:22.560Z,41.22
2022-12-11T12:36:42.721Z,41.92
2022-12-11T12:42:01.353Z,41.42
2022-12-11T12:47:14.904Z,40.85
2022-12-11T12:52:33.879Z,38.78
2022-12-11T12:57:37.161Z,37.97
2022-12-11T13:02:49.380Z,41.05
2022-12-11T13:07:55.687Z,38.70
2022-12-11T13:12:58.276Z,41.15
2022-12-11T13:18:01.899Z,45.33
2022-12-11T13:23:06.534Z,44.70
2022-12-11T13:28:31.335Z,44.97
2022-12-11T13:33:38.720Z,46.35
2022-12-11T13:38:49.304Z,45.13
2022-12-11T13:43:52.345Z,44.63
2022-12-11T13:49:00.922Z,40.20
2022-12-11T13:54:17.931Z,44.42
2022-12-11T13:59:32.347Z,42.03
2022-12-11T14:04:34.789Z,46.40
2022-12-11T14:09:43.569Z,43.00
2022-12-11T14:14:52.066Z,48.22
2022-12-11T14:19:56.231Z,44.72
2022-12-11T14:25:03.169Z,45.72
2022-12-11T14:30:12.499Z,41.67
2022-12-11T14:35:38.685Z,47.05
2022-12-11T14:40:44.429Z,43.03
2022-12-11T14:45:49.849Z,39.13
2022-12-11T14:50:58.441Z,47.63
2022-12-11T14:56:04.812Z,39.05
2022-12-11T15:01:20.907Z,41.15
2022-12-11T15:06:30.820Z,45.47
2022-12-11T15:11:32.894Z,42.67
2022-12-11T15:16:38.278Z,42.53
2022-12-11T15:21:40.034Z,46.97
2022-12-11T15:26:46.132Z,42.65
2022-12-11T15:31:58.436Z,44.60
2022-12-11T15:37:00.020Z,42.25
2022-12-11T15:42:02.533Z,47.30
2022-12-11T15:47:15.536Z,41.97
2022-12-11T15:52:18.475Z,44.10
2022-12-11T15:57:23.913Z,44.85
2022-12-11T16:02:28.003Z,43.97
2022-12-11T16:07:29.875Z,46.15
2022-12-11T16:12:31.566Z,48.50
2022-12-11T16:17:33.195Z,48.78
2022-12-11T16:22:34.834Z,44.40
2022-12-11T16:27:36.571Z,48.58
2022-12-11T16:32:38.235Z,48.30
2022-12-11T16:37:39.895Z,47.20
2022-12-11T16:42:41.599Z,49.35
2022-12-11T16:47:43.401Z,49.30
2022-12-11T16:52:45.686Z,51.22
2022-12-11T16:57:47.407Z,46.80
2022-12-11T17:02:49.114Z,45.75
2022-12-11T17:07:52.308Z,48.40
2022-12-11T17:12:54.122Z,49.15
2022-12-11T17:17:55.864Z,47.17
2022-12-11T17:22:57.511Z,45.42
2022-12-11T17:27:59.193Z,44.75
2022-12-11T17:33:02.849Z,48.83
2022-12-11T17:38:05.033Z,51.95
2022-12-11T17:43:10.437Z,50.95
2022-12-11T17:48:12.540Z,51.95
2022-12-11T17:53:16.848Z,62.53
2022-12-11T17:58:22.049Z,55.20
2022-12-11T18:03:25.419Z,54.78
2022-12-11T18:08:30.145Z,57.15
2022-12-11T18:13:32.626Z,49.10
2022-12-11T18:18:34.853Z,53.08
2022-12-11T18:23:36.492Z,46.80
2022-12-11T18:28:38.227Z,48.70
2022-12-11T18:33:42.139Z,47.22
2022-12-11T18:38:44.199Z,48.15
2022-12-11T18:43:45.977Z,53.45
2022-12-11T18:48:57.191Z,44.17
2022-12-11T18:59:05.706Z,48.53
2022-12-11T19:04:10.954Z,48.08
2022-12-11T19:09:13.816Z,48.92
2022-12-11T19:14:15.765Z,53.55
2022-12-11T19:19:19.928Z,50.55
2022-12-11T19:24:24.947Z,56.22
2022-12-11T19:29:33.762Z,53.75
2022-12-11T19:34:35.536Z,54.75
2022-12-11T19:39:41.046Z,57.13
2022-12-11T19:44:43.522Z,55.20
2022-12-11T19:49:45.719Z,62.75
2022-12-11T19:54:47.318Z,54.17
2022-12-11T19:59:56.962Z,60.28
2022-12-11T20:04:59.386Z,56.50
2022-12-11T20:10:01.149Z,57.83
2022-12-11T20:15:05.113Z,59.22
2022-12-11T20:20:07.219Z,64.35
2022-12-11T20:25:09.732Z,60.63
2022-12-11T20:30:12.517Z,67.03
2022-12-11T20:35:14.444Z,64.20
2022-12-11T20:40:17.048Z,68.55
2022-12-11T20:45:18.698Z,65.75
2022-12-11T20:50:20.285Z,62.28
2022-12-11T20:55:21.874Z,67.90
2022-12-11T21:00:23.600Z,60.83
2022-12-11T21:05:25.188Z,64.65
2022-12-11T21:10:26.774Z,67.65
2022-12-11T21:15:28.720Z,66.47
2022-12-11T21:20:30.324Z,63.08
2022-12-11T21:25:31.939Z,58.75
2022-12-11T21:30:33.632Z,58.80
2022-12-11T21:35:35.295Z,64.50
2022-12-11T21:40:36.920Z,62.92
2022-12-11T21:46:00.393Z,60.22
2022-12-11T21:51:12.396Z,64.35
2022-12-11T21:56:20.719Z,60.85
2022-12-11T22:01:30.724Z,54.70
2022-12-11T22:06:32.539Z,56.75
2022-12-11T22:11:35.346Z,59.10
2022-12-11T22:16:36.991Z,59.88
2022-12-11T22:21:38.658Z,58.83
2022-12-11T22:26:40.511Z,61.25
2022-12-11T22:31:42.173Z,59.55
2022-12-11T22:36:43.817Z,55.97
2022-12-11T22:41:45.566Z,58.00
2022-12-11T22:46:50.293Z,62.22
2022-12-11T22:51:52.393Z,65.03
2022-12-11T22:56:54.001Z,66.50
2022-12-11T23:01:55.652Z,65.93
2022-12-11T23:06:57.528Z,59.42
2022-12-11T23:11:59.157Z,66.82
2022-12-11T23:17:00.777Z,64.80
2022-12-11T23:22:03.102Z,64.10
2022-12-11T23:27:05.090Z,65.40
2022-12-11T23:32:06.737Z,59.15
2022-12-11T23:37:08.682Z,66.47
2022-12-11T23:42:10.286Z,63.47
2022-12-11T23:47:11.977Z,56.83
2022-12-11T23:52:13.657Z,63.47
2022-12-11T23:57:15.248Z,64.57
